High temp

Not for real navigation. The accuracy of this data is not assured See disclaimer for more information



ICAO NAME COUNTRY WIND Kt GUST Kt VIS m TEMP/DEW C BARO METAR
SBAA Conceicao Do Araguaia Brazil 4 0 9999 40/10 29.74 SBAA 262000Z 09004KT 9999 SCT035 40/10 Q1007
SBCI Maranhao / Carolina Airport Brazil 5 0 9999 39/9 29.74 SBCI 262000Z 10005KT 9999 FEW030 39/09 Q1007
SLVM Villamontes Bolivia 5 0 9999 38/16 29.71 SLVM 262000Z 36005KT 9999 NSC 38/16 Q1006
SBIZ Imperatriz Brazil 5 0 9999 37/17 29.74 SBIZ 262000Z 09005KT 9999 FEW040 37/17 Q1007
SBTE Teresina Aeroporto Brazil 4 0 9999 36/13 29.74 SBTE 262100Z 12004KT CAVOK 36/13 Q1007

Show more